createdAt,value
2023-04-25T00:01:52.303Z,100.00
2023-04-25T00:04:19.170Z,100.00
2023-04-25T00:06:45.987Z,100.00
2023-04-25T00:09:12.497Z,100.00
2023-04-25T00:11:39.048Z,100.00
2023-04-25T00:14:05.886Z,100.00
2023-04-25T00:16:35.908Z,100.00
2023-04-25T00:19:03.311Z,100.00
2023-04-25T00:21:30.057Z,100.00
2023-04-25T00:23:57.067Z,100.00
2023-04-25T00:26:24.106Z,100.00
2023-04-25T00:28:50.637Z,100.00
2023-04-25T00:31:17.207Z,100.00
2023-04-25T00:33:43.849Z,100.00
2023-04-25T00:36:10.684Z,100.00
2023-04-25T00:38:37.825Z,100.00
2023-04-25T00:41:06.829Z,100.00
2023-04-25T00:43:33.782Z,100.00
2023-04-25T00:46:01.357Z,100.00
2023-04-25T00:48:28.371Z,99.64
2023-04-25T00:50:57.867Z,99.52
2023-04-25T00:53:26.916Z,99.16
2023-04-25T00:55:54.258Z,98.11
2023-04-25T00:58:22.222Z,97.73
2023-04-25T01:00:51.205Z,97.55
2023-04-25T01:03:20.760Z,97.20
2023-04-25T01:05:48.835Z,96.23
2023-04-25T01:08:15.824Z,96.07
2023-04-25T01:10:42.389Z,95.60
2023-04-25T01:13:09.095Z,94.72
2023-04-25T01:15:36.952Z,94.61
2023-04-25T01:18:04.967Z,94.53
2023-04-25T01:20:33.363Z,95.10
2023-04-25T01:23:00.722Z,94.79
2023-04-25T01:25:27.341Z,94.37
2023-04-25T01:27:54.322Z,94.24
2023-04-25T01:30:21.160Z,94.13
2023-04-25T01:32:49.169Z,94.29
2023-04-25T01:35:15.963Z,94.65
2023-04-25T01:37:43.852Z,94.58
2023-04-25T01:40:12.162Z,94.31
2023-04-25T01:42:41.251Z,94.61
2023-04-25T01:45:08.810Z,95.15
2023-04-25T01:47:38.632Z,95.10
2023-04-25T01:50:05.922Z,94.94
2023-04-25T01:52:32.405Z,95.42
2023-04-25T01:55:02.029Z,95.27
2023-04-25T01:57:28.612Z,95.46
2023-04-25T02:00:04.365Z,95.61
2023-04-25T02:02:31.055Z,95.45
2023-04-25T02:04:57.675Z,95.42
2023-04-25T02:07:24.162Z,96.07
2023-04-25T02:09:50.752Z,96.01
2023-04-25T02:12:17.254Z,96.02
2023-04-25T02:14:43.725Z,95.55
2023-04-25T02:17:10.333Z,96.05
2023-04-25T02:19:36.889Z,95.75
2023-04-25T02:22:03.496Z,95.88
2023-04-25T02:24:30.150Z,96.01
2023-04-25T02:26:57.025Z,96.41
2023-04-25T02:29:24.369Z,95.92
2023-04-25T02:31:50.880Z,96.17
2023-04-25T02:34:17.466Z,95.75
2023-04-25T02:36:44.115Z,95.83
2023-04-25T02:39:11.489Z,95.57
2023-04-25T02:41:38.116Z,95.37
2023-04-25T02:44:04.657Z,95.74
2023-04-25T02:46:39.016Z,95.85
2023-04-25T02:49:07.372Z,95.57
2023-04-25T02:51:33.923Z,95.38
2023-04-25T02:54:00.401Z,96.05
2023-04-25T02:56:27.713Z,96.08
2023-04-25T02:58:54.896Z,96.22
2023-04-25T03:01:21.556Z,96.23
2023-04-25T03:03:48.269Z,96.46
2023-04-25T03:06:16.568Z,97.40
2023-04-25T03:08:43.830Z,97.84
2023-04-25T03:11:11.465Z,97.69
2023-04-25T03:13:38.150Z,98.67
2023-04-25T03:16:05.037Z,98.09
2023-04-25T03:18:31.558Z,98.16
2023-04-25T03:20:58.185Z,98.25
2023-04-25T03:23:24.745Z,98.09
2023-04-25T03:25:51.189Z,97.62
2023-04-25T03:28:17.744Z,97.79
2023-04-25T03:30:44.227Z,97.55
2023-04-25T03:33:10.801Z,97.17
2023-04-25T03:35:37.335Z,96.84
2023-04-25T03:38:03.830Z,97.58
2023-04-25T03:40:30.275Z,97.11
2023-04-25T03:42:56.951Z,97.66
2023-04-25T03:45:23.451Z,97.33
2023-04-25T03:47:50.406Z,97.79
2023-04-25T03:50:16.944Z,97.57
2023-04-25T03:52:44.522Z,97.44
2023-04-25T03:55:11.370Z,97.13
2023-04-25T03:57:37.830Z,96.97
2023-04-25T04:00:05.412Z,97.97
2023-04-25T04:02:32.621Z,97.90
2023-04-25T04:04:59.382Z,97.75
2023-04-25T04:07:25.990Z,98.03
2023-04-25T04:09:52.481Z,98.10
2023-04-25T04:12:18.994Z,97.48
2023-04-25T04:14:45.436Z,97.67
2023-04-25T04:17:11.967Z,97.17
2023-04-25T04:19:38.427Z,97.33
2023-04-25T04:22:04.914Z,97.48
2023-04-25T04:24:31.414Z,97.71
2023-04-25T04:26:58.008Z,97.60
2023-04-25T04:29:24.762Z,97.89
2023-04-25T04:31:52.321Z,98.26
2023-04-25T04:34:19.508Z,98.09
2023-04-25T04:36:49.557Z,97.62
2023-04-25T04:39:16.183Z,97.46
2023-04-25T04:41:43.853Z,97.49
2023-04-25T04:44:11.030Z,97.26
2023-04-25T04:46:43.018Z,96.36
2023-04-25T04:49:10.869Z,96.88
2023-04-25T04:51:37.823Z,96.72
2023-04-25T04:54:04.696Z,96.78
2023-04-25T04:56:31.964Z,95.84
2023-04-25T04:58:59.482Z,96.26
2023-04-25T05:01:27.461Z,95.76
2023-04-25T05:03:54.546Z,95.68
2023-04-25T05:06:21.526Z,95.45
2023-04-25T05:08:48.045Z,96.04
2023-04-25T05:11:14.519Z,95.71
2023-04-25T05:13:40.961Z,95.61
2023-04-25T05:16:07.434Z,94.86
2023-04-25T05:18:33.975Z,95.13
2023-04-25T05:21:00.494Z,95.08
2023-04-25T05:23:28.882Z,95.13
2023-04-25T05:25:55.508Z,95.36
2023-04-25T05:28:22.169Z,95.17
2023-04-25T05:30:49.055Z,94.97
2023-04-25T05:33:15.772Z,95.21
2023-04-25T05:35:42.615Z,95.06
2023-04-25T05:38:09.165Z,95.20
2023-04-25T05:40:35.864Z,94.80
2023-04-25T05:43:02.297Z,94.08
2023-04-25T05:45:28.767Z,94.23
2023-04-25T05:47:55.373Z,94.50
2023-04-25T05:50:22.175Z,92.56
2023-04-25T05:52:48.680Z,92.04
2023-04-25T05:55:15.897Z,92.96
2023-04-25T05:57:43.395Z,92.66
2023-04-25T06:00:10.700Z,92.53
2023-04-25T06:02:37.327Z,91.78
2023-04-25T06:05:04.695Z,91.19
2023-04-25T06:07:31.865Z,91.12
2023-04-25T06:09:58.405Z,91.26
2023-04-25T06:12:24.882Z,91.06
2023-04-25T06:14:51.340Z,90.52
2023-04-25T06:17:17.790Z,90.14
2023-04-25T06:19:44.280Z,90.20
2023-04-25T06:22:11.246Z,89.03
2023-04-25T06:24:37.716Z,89.09
2023-04-25T06:27:04.188Z,89.70
2023-04-25T06:29:30.756Z,87.37
2023-04-25T06:31:58.094Z,88.42
2023-04-25T06:34:25.035Z,86.81
2023-04-25T06:36:51.461Z,87.53
2023-04-25T06:39:18.027Z,85.63
2023-04-25T06:41:44.597Z,86.46
2023-04-25T06:44:11.130Z,86.98
2023-04-25T06:46:38.693Z,86.44
2023-04-25T06:49:05.246Z,86.23
2023-04-25T06:51:31.901Z,84.49
2023-04-25T06:53:58.928Z,85.42
2023-04-25T06:56:25.517Z,85.15
2023-04-25T06:58:52.153Z,84.66
2023-04-25T07:01:18.946Z,82.25
2023-04-25T07:03:45.648Z,82.88
2023-04-25T07:06:12.557Z,81.40
2023-04-25T07:08:39.068Z,83.30
2023-04-25T07:11:05.537Z,82.43
2023-04-25T07:13:32.068Z,80.06
2023-04-25T07:15:58.626Z,79.79
2023-04-25T07:18:25.197Z,79.06
2023-04-25T07:20:51.699Z,80.03
2023-04-25T07:23:18.193Z,77.11
2023-04-25T07:25:44.671Z,78.25
2023-04-25T07:28:11.087Z,75.97
2023-04-25T07:30:37.776Z,77.19
2023-04-25T07:33:04.335Z,77.04
2023-04-25T07:35:30.888Z,76.06
2023-04-25T07:37:57.370Z,73.26
2023-04-25T07:40:23.966Z,75.55
2023-04-25T07:42:50.508Z,72.66
2023-04-25T07:45:17.116Z,71.38
2023-04-25T07:47:43.629Z,74.03
2023-04-25T07:50:11.153Z,71.23
2023-04-25T07:52:37.836Z,70.21
2023-04-25T07:55:04.814Z,66.71
2023-04-25T07:57:31.781Z,67.10
2023-04-25T07:59:58.274Z,66.74
2023-04-25T08:02:27.082Z,67.30
2023-04-25T08:04:53.730Z,64.46
2023-04-25T08:07:20.655Z,66.31
2023-04-25T08:09:47.174Z,66.07
2023-04-25T08:12:13.683Z,66.77
2023-04-25T08:14:40.783Z,66.15
2023-04-25T08:17:07.282Z,66.61
2023-04-25T08:19:33.852Z,65.42
2023-04-25T08:22:00.325Z,65.15
2023-04-25T08:24:26.889Z,66.33
2023-04-25T08:26:53.602Z,63.32
2023-04-25T08:29:20.190Z,64.98
2023-04-25T08:31:46.960Z,66.70
2023-04-25T08:34:13.505Z,64.38
2023-04-25T08:36:40.547Z,62.53
2023-04-25T08:39:08.012Z,61.61
2023-04-25T08:41:34.550Z,61.06
2023-04-25T08:44:03.531Z,63.47
2023-04-25T08:46:32.311Z,62.62
2023-04-25T08:49:02.492Z,59.89
2023-04-25T08:51:32.767Z,60.63
2023-04-25T08:54:34.456Z,59.74
2023-04-25T08:57:05.769Z,61.20
2023-04-25T08:59:33.536Z,62.57
2023-04-25T09:02:01.602Z,60.86
2023-04-25T09:04:28.305Z,59.56
2023-04-25T09:06:54.793Z,56.90
2023-04-25T09:09:21.623Z,55.05
2023-04-25T09:11:48.178Z,54.21
2023-04-25T09:14:23.511Z,56.34
2023-04-25T09:17:01.357Z,55.52
2023-04-25T09:19:40.430Z,55.82
2023-04-25T09:22:08.661Z,55.78
2023-04-25T09:24:46.711Z,54.20
2023-04-25T09:27:18.861Z,55.25
2023-04-25T09:29:45.425Z,56.45
2023-04-25T09:32:21.560Z,55.09
2023-04-25T09:34:53.280Z,56.13
2023-04-25T09:37:21.691Z,54.39
2023-04-25T09:39:56.583Z,54.71
2023-04-25T09:42:28.435Z,55.95
2023-04-25T09:44:56.481Z,58.62
2023-04-25T09:47:25.773Z,56.51
2023-04-25T09:49:54.068Z,57.23
2023-04-25T09:52:25.179Z,55.34
2023-04-25T09:54:52.831Z,52.98
2023-04-25T09:57:21.582Z,51.87
2023-04-25T09:59:53.378Z,53.76
2023-04-25T10:02:22.249Z,54.21
2023-04-25T10:04:56.645Z,54.69
2023-04-25T10:07:27.247Z,55.21
2023-04-25T10:10:05.424Z,55.33
2023-04-25T10:12:33.743Z,56.26
2023-04-25T10:15:01.539Z,55.19
2023-04-25T10:17:31.570Z,57.95
2023-04-25T10:19:58.731Z,59.12
2023-04-25T10:22:35.236Z,59.34
2023-04-25T10:25:04.919Z,59.37
2023-04-25T10:27:32.425Z,57.91
2023-04-25T10:30:07.273Z,57.57
2023-04-25T10:32:34.562Z,59.57
2023-04-25T10:35:17.842Z,58.05
2023-04-25T10:38:06.505Z,58.94
2023-04-25T10:40:34.468Z,57.64
2023-04-25T10:43:32.029Z,60.32
2023-04-25T10:46:01.533Z,59.57
2023-04-25T10:48:32.469Z,57.09
2023-04-25T10:51:12.812Z,59.30
2023-04-25T10:53:39.310Z,57.35
2023-04-25T10:56:33.506Z,56.80
2023-04-25T10:59:29.371Z,57.99
2023-04-25T11:01:57.107Z,56.15
2023-04-25T11:04:25.810Z,57.97
2023-04-25T11:07:08.717Z,55.64
2023-04-25T11:09:41.016Z,51.91
2023-04-25T11:12:12.789Z,51.38
2023-04-25T11:17:07.152Z,51.90
2023-04-25T11:19:33.659Z,52.80
2023-04-25T11:22:02.064Z,53.45
2023-04-25T11:24:30.311Z,55.02
2023-04-25T11:26:59.322Z,54.53
2023-04-25T11:29:30.048Z,55.58
2023-04-25T11:31:59.006Z,53.48
2023-04-25T11:34:27.005Z,55.04
2023-04-25T11:36:54.211Z,53.61
2023-04-25T11:39:21.458Z,53.55
2023-04-25T11:41:48.497Z,56.17
2023-04-25T11:44:19.349Z,57.08
2023-04-25T11:46:46.416Z,57.21
2023-04-25T11:49:13.697Z,56.87
2023-04-25T11:51:44.313Z,57.49
2023-04-25T11:54:11.394Z,55.80
2023-04-25T11:56:37.954Z,54.87
2023-04-25T11:59:06.646Z,56.61
2023-04-25T12:01:36.528Z,56.59
2023-04-25T12:04:17.961Z,55.22
2023-04-25T12:06:48.815Z,54.89
2023-04-25T12:09:19.486Z,56.45
2023-04-25T12:11:48.173Z,56.02
2023-04-25T12:14:27.989Z,49.79
2023-04-25T12:16:58.687Z,50.30
2023-04-25T12:19:25.417Z,46.48
2023-04-25T12:24:26.696Z,46.90
2023-04-25T12:26:54.947Z,49.31
2023-04-25T12:29:29.446Z,48.60
2023-04-25T12:31:59.125Z,49.41
2023-04-25T12:34:25.700Z,48.08
2023-04-25T12:36:53.175Z,48.70
2023-04-25T12:39:24.751Z,46.81
2023-04-25T12:41:54.877Z,46.62
2023-04-25T12:44:21.957Z,46.40
2023-04-25T12:46:48.989Z,48.27
2023-04-25T12:49:19.218Z,48.64
2023-04-25T12:51:46.265Z,42.89
2023-04-25T12:54:12.761Z,44.76
2023-04-25T12:56:39.559Z,41.64
2023-04-25T12:59:06.046Z,41.49
2023-04-25T13:01:34.699Z,43.20
2023-04-25T13:04:02.931Z,42.95
2023-04-25T13:06:31.397Z,45.10
2023-04-25T13:08:57.963Z,42.41
2023-04-25T13:11:24.698Z,44.76
2023-04-25T13:13:51.373Z,45.82
2023-04-25T13:16:18.567Z,42.12
2023-04-25T13:18:45.228Z,42.09
2023-04-25T13:21:12.488Z,43.93
2023-04-25T13:23:39.198Z,43.05
2023-04-25T13:26:06.417Z,45.73
2023-04-25T13:28:32.929Z,44.72
2023-04-25T13:31:00.453Z,45.08
2023-04-25T13:33:26.986Z,46.01
2023-04-25T13:35:58.007Z,46.12
2023-04-25T13:38:26.700Z,46.98
2023-04-25T13:40:54.370Z,47.24
2023-04-25T13:43:22.913Z,47.37
2023-04-25T13:45:50.372Z,47.87
2023-04-25T13:48:17.524Z,48.24
2023-04-25T13:50:44.038Z,46.03
2023-04-25T13:53:10.530Z,48.33
2023-04-25T13:55:37.889Z,45.63
2023-04-25T13:58:09.043Z,47.73
2023-04-25T14:00:40.433Z,46.36
2023-04-25T14:03:10.445Z,46.50
2023-04-25T14:05:40.924Z,45.15
2023-04-25T14:08:09.261Z,42.51
2023-04-25T14:10:36.603Z,44.73
2023-04-25T14:13:04.360Z,45.20
2023-04-25T14:15:35.033Z,47.71
2023-04-25T14:18:02.652Z,46.29
2023-04-25T14:20:29.809Z,47.47
2023-04-25T14:22:58.095Z,46.20
2023-04-25T14:25:25.584Z,46.26
2023-04-25T14:27:52.226Z,47.57
2023-04-25T14:30:20.147Z,45.53
2023-04-25T14:32:47.322Z,46.18
2023-04-25T14:35:14.109Z,46.55
2023-04-25T14:37:40.962Z,45.97
2023-04-25T14:40:13.028Z,46.02
2023-04-25T14:42:40.730Z,47.32
2023-04-25T14:45:08.533Z,46.28
2023-04-25T14:47:37.115Z,45.18
2023-04-25T14:50:03.872Z,46.76
2023-04-25T14:52:30.682Z,48.28
2023-04-25T14:54:57.216Z,48.02
2023-04-25T14:57:23.753Z,48.36
2023-04-25T14:59:50.532Z,48.62
2023-04-25T15:02:17.243Z,48.63
2023-04-25T15:04:44.078Z,49.96
2023-04-25T15:07:11.264Z,49.47
2023-04-25T15:09:37.739Z,49.81
2023-04-25T15:12:04.767Z,50.57
2023-04-25T15:14:31.433Z,49.00
2023-04-25T15:16:58.138Z,50.83
2023-04-25T15:19:24.691Z,48.97
2023-04-25T15:21:51.198Z,49.40
2023-04-25T15:24:17.807Z,48.83
2023-04-25T15:26:44.492Z,48.44
2023-04-25T15:29:11.535Z,49.11
2023-04-25T15:31:38.363Z,47.40
2023-04-25T15:34:04.931Z,49.63
2023-04-25T15:36:32.444Z,48.31
2023-04-25T15:38:59.037Z,46.62
2023-04-25T15:41:26.401Z,45.22
2023-04-25T15:43:54.823Z,45.19
2023-04-25T15:46:23.672Z,44.69
2023-04-25T15:48:50.248Z,43.43
2023-04-25T15:51:17.246Z,44.02
2023-04-25T15:53:43.856Z,45.40
2023-04-25T15:56:10.367Z,45.90
2023-04-25T15:58:36.874Z,45.98
2023-04-25T16:01:04.908Z,46.82
2023-04-25T16:03:33.776Z,46.59
2023-04-25T16:06:03.088Z,45.56
2023-04-25T16:08:29.867Z,46.19
2023-04-25T16:10:57.353Z,44.12
2023-04-25T16:13:23.841Z,43.28
2023-04-25T16:15:50.453Z,43.89
2023-04-25T16:18:17.302Z,42.88
2023-04-25T16:20:44.488Z,42.00
2023-04-25T16:23:10.935Z,42.64
2023-04-25T16:25:37.422Z,41.94
2023-04-25T16:28:03.924Z,41.89
2023-04-25T16:30:30.506Z,42.67
2023-04-25T16:32:57.668Z,43.96
2023-04-25T16:35:24.685Z,46.49
2023-04-25T16:37:51.232Z,47.97
2023-04-25T16:40:17.903Z,50.17
2023-04-25T16:42:44.505Z,49.87
2023-04-25T16:45:11.341Z,50.02
2023-04-25T16:47:37.921Z,50.21
2023-04-25T16:50:05.052Z,49.89
2023-04-25T16:52:31.808Z,48.80
2023-04-25T16:54:58.247Z,48.79
2023-04-25T16:57:24.714Z,48.98
2023-04-25T16:59:52.058Z,49.77
2023-04-25T17:02:18.606Z,49.08
2023-04-25T17:04:45.168Z,50.18
2023-04-25T17:07:11.622Z,49.69
2023-04-25T17:09:38.925Z,50.41
2023-04-25T17:12:06.062Z,50.47
2023-04-25T17:14:35.355Z,51.41
2023-04-25T17:17:02.363Z,51.80
2023-04-25T17:19:30.242Z,52.30
2023-04-25T17:21:57.319Z,52.82
2023-04-25T17:24:23.847Z,53.43
2023-04-25T17:26:50.420Z,52.50
2023-04-25T17:29:16.987Z,53.16
2023-04-25T17:31:44.358Z,51.85
2023-04-25T17:34:12.160Z,53.33
2023-04-25T17:36:38.618Z,53.22
2023-04-25T17:39:06.394Z,52.90
2023-04-25T17:41:32.896Z,51.97
2023-04-25T17:43:59.330Z,51.61
2023-04-25T17:46:27.476Z,52.32
2023-04-25T17:48:54.510Z,52.53
2023-04-25T17:51:21.302Z,52.54
2023-04-25T17:53:48.028Z,52.91
2023-04-25T17:56:25.860Z,53.32
2023-04-25T17:58:53.240Z,55.21
2023-04-25T18:01:20.026Z,54.61
2023-04-25T18:03:49.168Z,54.11
2023-04-25T18:06:16.830Z,53.19
2023-04-25T18:08:44.673Z,53.46
2023-04-25T18:11:12.204Z,54.06
2023-04-25T18:13:39.144Z,54.54
2023-04-25T18:16:06.130Z,53.84
2023-04-25T18:18:36.723Z,53.78
2023-04-25T18:21:05.276Z,54.47
2023-04-25T18:23:34.174Z,54.88
2023-04-25T18:26:02.302Z,54.96
2023-04-25T18:28:29.311Z,55.47
2023-04-25T18:30:55.882Z,55.84
2023-04-25T18:33:22.623Z,56.30
2023-04-25T18:35:58.731Z,56.40
2023-04-25T18:38:35.409Z,55.53
2023-04-25T18:41:18.215Z,56.98
2023-04-25T18:43:49.596Z,57.88
2023-04-25T18:46:17.424Z,57.85
2023-04-25T18:48:44.001Z,57.76
2023-04-25T18:51:10.547Z,57.92
2023-04-25T18:53:37.450Z,57.79
2023-04-25T18:56:04.622Z,58.97
2023-04-25T18:58:31.443Z,58.45
2023-04-25T19:00:57.943Z,58.61
2023-04-25T19:03:24.615Z,59.17
2023-04-25T19:05:51.701Z,59.68
2023-04-25T19:08:18.338Z,60.05
2023-04-25T19:10:45.206Z,60.22
2023-04-25T19:13:11.671Z,60.82
2023-04-25T19:15:39.424Z,61.33
2023-04-25T19:18:06.172Z,62.07
2023-04-25T19:20:35.927Z,61.57
2023-04-25T19:23:02.395Z,61.62
2023-04-25T19:25:28.915Z,62.57
2023-04-25T19:27:55.440Z,62.91
2023-04-25T19:30:22.010Z,62.94
2023-04-25T19:32:48.999Z,62.47
2023-04-25T19:35:15.723Z,62.84
2023-04-25T19:37:46.477Z,62.67
2023-04-25T19:40:17.696Z,62.57
2023-04-25T19:42:44.767Z,63.68
2023-04-25T19:45:11.799Z,63.13
2023-04-25T19:47:38.644Z,62.83
2023-04-25T19:50:09.714Z,63.44
2023-04-25T19:52:37.374Z,63.53
2023-04-25T19:55:05.186Z,63.89
2023-04-25T19:57:37.520Z,64.45
2023-04-25T20:00:08.218Z,64.61
2023-04-25T20:02:35.352Z,64.67
2023-04-25T20:05:02.282Z,64.78
2023-04-25T20:07:29.080Z,65.26
2023-04-25T20:09:55.552Z,64.37
2023-04-25T20:12:22.034Z,65.28
2023-04-25T20:14:48.511Z,65.68
2023-04-25T20:17:14.994Z,65.69
2023-04-25T20:19:41.445Z,66.30
2023-04-25T20:22:07.901Z,66.13
2023-04-25T20:24:34.454Z,66.70
2023-04-25T20:27:01.192Z,66.88
2023-04-25T20:29:27.640Z,67.14
2023-04-25T20:31:55.020Z,66.51
2023-04-25T20:34:22.363Z,67.26
2023-04-25T20:36:48.861Z,67.19
2023-04-25T20:39:15.483Z,67.34
2023-04-25T20:41:42.025Z,67.53
2023-04-25T20:44:09.405Z,67.18
2023-04-25T20:46:36.401Z,67.03
2023-04-25T20:49:05.087Z,67.09
2023-04-25T20:51:32.625Z,68.27
2023-04-25T20:53:59.296Z,67.51
2023-04-25T20:56:26.563Z,68.00
2023-04-25T20:58:53.868Z,68.68
2023-04-25T21:01:20.804Z,68.61
2023-04-25T21:03:48.727Z,68.79
2023-04-25T21:06:16.676Z,69.11
2023-04-25T21:08:43.379Z,69.26
2023-04-25T21:11:09.902Z,69.34
2023-04-25T21:13:36.357Z,69.55
2023-04-25T21:16:03.583Z,69.48
2023-04-25T21:18:31.871Z,70.08
2023-04-25T21:20:58.845Z,70.36
2023-04-25T21:23:25.307Z,70.56
2023-04-25T21:25:53.409Z,71.23
2023-04-25T21:28:20.414Z,71.22
2023-04-25T21:30:47.201Z,71.49
2023-04-25T21:33:13.997Z,72.11
2023-04-25T21:35:40.616Z,72.23
2023-04-25T21:38:09.763Z,72.30
2023-04-25T21:40:37.446Z,72.76
2023-04-25T21:43:03.953Z,72.98
2023-04-25T21:45:30.983Z,73.85
2023-04-25T21:47:57.873Z,74.00
2023-04-25T21:50:24.351Z,74.94
2023-04-25T21:52:50.961Z,74.47
2023-04-25T21:55:17.586Z,74.81
2023-04-25T21:57:44.041Z,75.93
2023-04-25T22:00:27.712Z,76.64
2023-04-25T22:02:58.044Z,77.58
2023-04-25T22:05:26.556Z,77.60
2023-04-25T22:07:56.968Z,78.18
2023-04-25T22:10:25.208Z,79.00
2023-04-25T22:12:52.297Z,79.39
2023-04-25T22:15:21.563Z,79.31
2023-04-25T22:17:48.607Z,79.28
2023-04-25T22:20:15.546Z,79.27
2023-04-25T22:22:42.188Z,79.48
2023-04-25T22:25:09.805Z,79.47
2023-04-25T22:27:36.374Z,79.52
2023-04-25T22:30:03.608Z,78.66
2023-04-25T22:32:30.214Z,78.94
2023-04-25T22:34:56.693Z,79.02
2023-04-25T22:37:23.337Z,79.05
2023-04-25T22:39:49.904Z,78.66
2023-04-25T22:42:16.386Z,78.73
2023-04-25T22:44:43.007Z,78.31
2023-04-25T22:47:09.549Z,79.09
2023-04-25T22:49:35.987Z,79.39
2023-04-25T22:52:04.189Z,78.88
2023-04-25T22:54:30.709Z,79.30
2023-04-25T22:56:57.936Z,79.59
2023-04-25T22:59:24.370Z,79.07
2023-04-25T23:01:51.533Z,78.94
2023-04-25T23:04:19.438Z,79.17
2023-04-25T23:06:46.424Z,79.69
2023-04-25T23:09:13.617Z,79.78
2023-04-25T23:11:42.952Z,80.55
2023-04-25T23:14:09.482Z,80.63
2023-04-25T23:16:36.260Z,81.14
2023-04-25T23:19:03.393Z,81.33
2023-04-25T23:21:29.873Z,81.81
2023-04-25T23:23:56.462Z,82.28
2023-04-25T23:26:22.896Z,82.91
2023-04-25T23:28:49.400Z,83.31
2023-04-25T23:31:16.061Z,83.36
2023-04-25T23:33:42.626Z,83.53
2023-04-25T23:36:18.094Z,83.23
2023-04-25T23:38:44.907Z,83.77
2023-04-25T23:41:11.766Z,83.91
2023-04-25T23:43:38.329Z,83.62
2023-04-25T23:46:04.955Z,83.71
2023-04-25T23:48:31.662Z,83.19
2023-04-25T23:50:58.122Z,83.72
2023-04-25T23:53:24.696Z,84.08
2023-04-25T23:55:51.137Z,84.28
2023-04-25T23:58:17.623Z,84.20
